createdAt,value
2018-06-18T00:02:20.617Z,27.76
2018-06-18T00:04:49.744Z,27.75
2018-06-18T00:07:18.798Z,27.74
2018-06-18T00:09:47.774Z,27.74
2018-06-18T00:12:16.669Z,27.73
2018-06-18T00:14:45.614Z,27.74
2018-06-18T00:17:14.560Z,27.73
2018-06-18T00:19:43.607Z,27.73
2018-06-18T00:22:17.753Z,27.72
2018-06-18T00:24:48.268Z,27.71
2018-06-18T00:27:17.172Z,27.71
2018-06-18T00:29:46.088Z,27.70
2018-06-18T00:32:14.837Z,27.70
2018-06-18T00:34:43.738Z,27.69
2018-06-18T00:37:12.747Z,27.68
2018-06-18T00:39:41.772Z,27.68
2018-06-18T00:42:11.006Z,27.67
2018-06-18T00:44:39.953Z,27.67
2018-06-18T00:47:09.157Z,27.67
2018-06-18T00:49:38.392Z,27.65
2018-06-18T00:52:07.510Z,27.64
2018-06-18T00:54:36.539Z,27.63
2018-06-18T00:57:05.507Z,27.62
2018-06-18T00:59:34.468Z,27.62
2018-06-18T01:02:03.368Z,27.61
2018-06-18T01:04:32.359Z,27.62
2018-06-18T01:07:01.085Z,27.61
2018-06-18T01:09:30.142Z,27.61
2018-06-18T01:11:59.085Z,27.60
2018-06-18T01:14:27.964Z,27.60
2018-06-18T01:16:56.973Z,27.60
2018-06-18T01:19:26.071Z,27.58
2018-06-18T01:21:54.908Z,27.58
2018-06-18T01:24:42.682Z,27.58
2018-06-18T01:27:11.585Z,27.58
2018-06-18T01:29:40.553Z,27.58
2018-06-18T01:32:09.446Z,27.56
2018-06-18T01:34:38.142Z,27.56
2018-06-18T01:37:07.064Z,27.56
2018-06-18T01:39:36.103Z,27.55
2018-06-18T01:42:05.090Z,27.57
2018-06-18T01:44:34.022Z,27.56
2018-06-18T01:47:03.115Z,27.56
2018-06-18T01:49:32.172Z,27.55
2018-06-18T01:52:02.066Z,27.55
2018-06-18T01:54:31.082Z,27.54
2018-06-18T01:56:59.918Z,27.54
2018-06-18T01:59:28.877Z,27.54
2018-06-18T02:01:58.309Z,27.54
2018-06-18T02:04:27.921Z,27.53
2018-06-18T02:06:56.825Z,27.53
2018-06-18T02:09:25.573Z,27.52
2018-06-18T02:11:54.418Z,27.53
2018-06-18T02:14:23.392Z,27.51
2018-06-18T02:16:52.291Z,27.51
2018-06-18T02:19:21.173Z,27.51
2018-06-18T02:21:50.175Z,27.50
2018-06-18T02:24:19.264Z,27.49
2018-06-18T02:26:48.289Z,27.45
2018-06-18T02:29:22.494Z,27.49
2018-06-18T02:31:56.701Z,27.48
2018-06-18T02:34:30.766Z,27.47
2018-06-18T02:37:04.650Z,27.49
2018-06-18T02:39:36.758Z,27.50
2018-06-18T02:42:05.977Z,27.49
2018-06-18T02:44:34.726Z,27.51
2018-06-18T02:47:03.643Z,27.52
2018-06-18T02:49:32.727Z,27.53
2018-06-18T02:52:02.729Z,27.54
2018-06-18T02:54:31.724Z,27.56
2018-06-18T02:57:03.534Z,27.58
2018-06-18T02:59:32.590Z,27.58
2018-06-18T03:02:01.677Z,27.59
2018-06-18T03:04:30.620Z,27.61
2018-06-18T03:06:59.533Z,27.63
2018-06-18T03:09:28.542Z,27.65
2018-06-18T03:11:57.452Z,27.67
2018-06-18T03:14:26.392Z,27.67
2018-06-18T03:16:55.355Z,27.70
2018-06-18T03:19:29.207Z,27.71
2018-06-18T03:22:03.209Z,27.75
2018-06-18T03:24:37.270Z,27.76
2018-06-18T03:27:11.341Z,27.78
2018-06-18T03:29:40.204Z,27.80
2018-06-18T03:32:12.454Z,27.82
2018-06-18T03:34:41.370Z,27.83
2018-06-18T03:37:12.185Z,27.86
2018-06-18T03:39:41.057Z,27.89
2018-06-18T03:42:09.971Z,27.91
2018-06-18T03:45:19.332Z,27.93
2018-06-18T03:47:48.244Z,27.94
2018-06-18T03:50:17.222Z,27.97
2018-06-18T03:52:46.219Z,27.99
2018-06-18T03:55:22.927Z,28.00
2018-06-18T03:57:51.954Z,28.03
2018-06-18T04:00:20.848Z,28.05
2018-06-18T04:02:57.268Z,28.06
2018-06-18T04:05:31.301Z,28.08
2018-06-18T04:08:02.823Z,28.10
2018-06-18T04:10:38.371Z,28.12
2018-06-18T04:13:07.835Z,28.13
2018-06-18T04:15:36.673Z,28.15
2018-06-18T04:18:05.649Z,28.18
2018-06-18T04:20:50.368Z,28.20
2018-06-18T04:23:19.477Z,28.21
2018-06-18T04:25:48.412Z,28.23
2018-06-18T04:28:19.417Z,28.24
2018-06-18T04:30:48.406Z,28.26
2018-06-18T04:33:20.778Z,28.27
2018-06-18T04:35:49.757Z,28.29
2018-06-18T04:38:18.650Z,28.30
2018-06-18T04:40:47.707Z,28.32
2018-06-18T04:43:22.213Z,28.32
2018-06-18T04:45:56.301Z,28.33
2018-06-18T04:48:30.170Z,28.34
2018-06-18T04:51:01.184Z,28.35
2018-06-18T04:53:30.861Z,28.36
2018-06-18T04:55:59.864Z,28.38
2018-06-18T04:58:29.097Z,28.38
2018-06-18T05:01:29.923Z,28.37
2018-06-18T05:03:58.851Z,28.37
2018-06-18T05:06:28.925Z,28.38
2018-06-18T05:09:08.344Z,28.37
2018-06-18T05:11:37.300Z,28.38
2018-06-18T05:14:06.281Z,28.38
2018-06-18T05:16:35.098Z,28.39
2018-06-18T05:19:04.266Z,28.39
2018-06-18T05:21:33.694Z,28.40
2018-06-18T05:24:02.984Z,28.40
2018-06-18T05:26:32.567Z,28.41
2018-06-18T05:29:01.559Z,28.41
2018-06-18T05:31:30.561Z,28.38
2018-06-18T05:33:59.749Z,28.38
2018-06-18T05:36:28.526Z,28.37
2018-06-18T05:38:57.295Z,28.38
2018-06-18T05:41:26.101Z,28.36
2018-06-18T05:43:54.857Z,28.35
2018-06-18T05:46:23.661Z,28.34
2018-06-18T05:48:52.463Z,28.33
2018-06-18T05:51:21.899Z,28.33
2018-06-18T05:53:50.740Z,28.33
2018-06-18T05:56:19.527Z,28.33
2018-06-18T05:58:48.278Z,28.33
2018-06-18T06:01:18.008Z,28.34
2018-06-18T06:03:47.074Z,28.34
2018-06-18T06:06:15.910Z,28.36
2018-06-18T06:08:44.732Z,28.36
2018-06-18T06:11:13.528Z,28.37
2018-06-18T06:13:42.450Z,28.39
2018-06-18T06:16:11.202Z,28.40
2018-06-18T06:18:39.929Z,28.41
2018-06-18T06:21:10.677Z,28.42
2018-06-18T06:23:39.443Z,28.43
2018-06-18T06:26:08.363Z,28.42
2018-06-18T06:28:37.371Z,28.45
2018-06-18T06:31:06.524Z,28.45
2018-06-18T06:33:35.572Z,28.47
2018-06-18T06:36:05.045Z,28.47
2018-06-18T06:38:34.331Z,28.50
2018-06-18T06:41:03.587Z,28.52
2018-06-18T06:43:32.415Z,28.53
2018-06-18T06:46:01.271Z,28.53
2018-06-18T06:48:30.358Z,28.53
2018-06-18T06:50:59.295Z,28.54
2018-06-18T06:53:28.272Z,28.54
2018-06-18T06:55:57.095Z,28.50
2018-06-18T06:58:26.059Z,28.54
2018-06-18T07:00:55.062Z,28.54
2018-06-18T07:03:23.975Z,28.55
2018-06-18T07:05:53.205Z,28.55
2018-06-18T07:08:22.158Z,28.54
2018-06-18T07:10:51.186Z,28.53
2018-06-18T07:13:20.392Z,28.53
2018-06-18T07:15:49.225Z,28.53
2018-06-18T07:18:18.228Z,28.51
2018-06-18T07:20:47.232Z,28.51
2018-06-18T07:23:16.128Z,28.47
2018-06-18T07:25:45.159Z,28.45
2018-06-18T07:28:14.140Z,28.44
2018-06-18T07:30:43.098Z,28.43
2018-06-18T07:33:12.268Z,28.41
2018-06-18T07:35:41.289Z,28.39
2018-06-18T07:38:10.290Z,28.38
2018-06-18T07:40:39.371Z,28.36
2018-06-18T07:43:08.223Z,28.35
2018-06-18T07:45:37.371Z,28.35
2018-06-18T07:48:06.976Z,28.32
2018-06-18T07:50:35.960Z,28.31
2018-06-18T07:53:04.918Z,28.30
2018-06-18T07:55:33.859Z,28.29
2018-06-18T07:58:02.907Z,28.28
2018-06-18T08:00:31.900Z,28.26
2018-06-18T08:03:00.937Z,28.26
2018-06-18T08:05:29.877Z,28.25
2018-06-18T08:07:59.008Z,28.24
2018-06-18T08:10:28.060Z,28.23
2018-06-18T08:12:57.112Z,28.22
2018-06-18T08:15:26.047Z,28.22
2018-06-18T08:17:55.153Z,28.21
2018-06-18T08:20:24.203Z,28.21
2018-06-18T08:22:53.167Z,28.19
2018-06-18T08:25:22.234Z,28.20
2018-06-18T08:27:51.295Z,28.20
2018-06-18T08:30:21.064Z,28.19
2018-06-18T08:32:49.946Z,28.18
2018-06-18T08:35:18.944Z,28.18
2018-06-18T08:37:47.863Z,28.18
2018-06-18T08:40:16.766Z,28.18
2018-06-18T08:42:45.728Z,28.18
2018-06-18T08:45:14.622Z,28.18
2018-06-18T08:47:43.802Z,28.17
2018-06-18T08:50:17.856Z,28.18
2018-06-18T08:52:52.052Z,28.17
2018-06-18T08:55:26.206Z,28.16
2018-06-18T08:58:00.359Z,28.16
2018-06-18T09:00:34.492Z,28.16
2018-06-18T09:03:09.721Z,28.14
2018-06-18T09:05:42.762Z,28.14
2018-06-18T09:08:13.233Z,28.14
2018-06-18T09:10:42.298Z,28.13
2018-06-18T09:13:11.915Z,28.13
2018-06-18T09:15:40.991Z,28.14
2018-06-18T09:18:09.869Z,28.14
2018-06-18T09:20:38.847Z,28.14
2018-06-18T09:23:10.208Z,28.16
2018-06-18T09:25:44.347Z,28.17
2018-06-18T09:28:13.520Z,28.17
2018-06-18T09:30:42.613Z,28.18
2018-06-18T09:33:11.576Z,28.18
2018-06-18T09:35:40.567Z,28.18
2018-06-18T09:38:09.618Z,28.18
2018-06-18T09:40:38.588Z,28.18
2018-06-18T09:43:08.382Z,28.18
2018-06-18T09:45:37.352Z,28.18
2018-06-18T09:48:06.427Z,28.18
2018-06-18T09:50:40.583Z,28.18
2018-06-18T09:53:14.813Z,28.17
2018-06-18T09:55:49.077Z,28.16
2018-06-18T09:58:23.355Z,28.14
2018-06-18T10:01:04.857Z,28.14
2018-06-18T10:03:34.063Z,28.13
2018-06-18T10:06:04.184Z,28.13
2018-06-18T10:08:33.275Z,28.12
2018-06-18T10:11:02.122Z,28.12
2018-06-18T10:13:31.142Z,28.12
2018-06-18T10:16:01.078Z,28.11
2018-06-18T10:18:30.079Z,28.12
2018-06-18T10:20:59.189Z,28.12
2018-06-18T10:23:28.262Z,28.11
2018-06-18T10:25:57.348Z,28.10
2018-06-18T10:28:26.314Z,28.10
2018-06-18T10:30:55.431Z,28.10
2018-06-18T10:33:29.372Z,28.09
2018-06-18T10:36:03.692Z,28.09
2018-06-18T10:38:38.116Z,28.09
2018-06-18T10:41:12.102Z,28.08
2018-06-18T10:43:41.088Z,28.07
2018-06-18T10:46:10.066Z,28.07
2018-06-18T10:48:39.007Z,28.08
2018-06-18T10:51:07.771Z,28.09
2018-06-18T10:53:36.742Z,28.09
2018-06-18T10:56:06.175Z,28.09
2018-06-18T10:58:35.132Z,28.09
2018-06-18T11:01:07.021Z,28.09
2018-06-18T11:03:36.088Z,28.08
2018-06-18T11:06:09.951Z,28.09
2018-06-18T11:08:38.884Z,28.08
2018-06-18T11:11:08.155Z,28.08
2018-06-18T11:13:36.974Z,28.07
2018-06-18T11:16:06.143Z,28.06
2018-06-18T11:18:40.074Z,28.06
2018-06-18T11:21:14.219Z,28.05
2018-06-18T11:23:48.227Z,28.05
2018-06-18T11:26:22.374Z,28.05
2018-06-18T11:28:51.115Z,28.04
2018-06-18T11:31:20.218Z,28.04
2018-06-18T11:33:49.275Z,28.03
2018-06-18T11:36:18.553Z,28.04
2018-06-18T11:38:47.798Z,28.02
2018-06-18T11:41:16.909Z,28.03
2018-06-18T11:43:45.763Z,28.03
2018-06-18T11:46:14.824Z,28.02
2018-06-18T11:48:44.394Z,28.03
2018-06-18T11:51:13.388Z,28.03
2018-06-18T11:53:42.344Z,28.04
2018-06-18T11:56:11.352Z,28.03
2018-06-18T11:58:45.482Z,28.03
2018-06-18T12:01:19.980Z,28.04
2018-06-18T12:03:54.022Z,28.04
2018-06-18T12:06:28.495Z,28.03
2018-06-18T12:09:02.825Z,28.03
2018-06-18T12:11:31.893Z,28.03
2018-06-18T12:14:00.819Z,28.02
2018-06-18T12:16:34.030Z,28.04
2018-06-18T12:19:03.564Z,28.03
2018-06-18T12:21:32.794Z,28.02
2018-06-18T12:24:02.072Z,28.03
2018-06-18T12:26:31.623Z,28.02
2018-06-18T12:29:00.797Z,28.03
2018-06-18T12:31:29.983Z,28.02
2018-06-18T12:33:59.315Z,28.01
2018-06-18T12:36:28.196Z,28.01
2018-06-18T12:38:57.317Z,28.01
2018-06-18T12:41:26.196Z,28.01
2018-06-18T12:43:57.680Z,28.02
2018-06-18T12:46:32.124Z,28.01
2018-06-18T12:49:06.386Z,28.00
2018-06-18T12:52:44.513Z,28.00
2018-06-18T12:55:18.459Z,27.97
2018-06-18T12:57:47.501Z,27.96
2018-06-18T13:00:16.710Z,27.95
2018-06-18T13:02:50.522Z,27.96
2018-06-18T13:05:19.575Z,27.95
2018-06-18T13:07:48.690Z,27.95
2018-06-18T13:10:17.770Z,27.96
2018-06-18T13:12:46.901Z,27.96
2018-06-18T13:15:15.898Z,27.96
2018-06-18T13:17:45.101Z,27.96
2018-06-18T13:20:14.145Z,27.95
2018-06-18T13:22:43.430Z,27.96
2018-06-18T13:25:12.364Z,27.97
2018-06-18T13:27:46.598Z,27.97
2018-06-18T13:30:15.791Z,27.97
2018-06-18T13:32:44.933Z,27.99
2018-06-18T13:35:14.114Z,27.98
2018-06-18T13:37:48.051Z,27.98
2018-06-18T13:40:22.281Z,27.98
2018-06-18T13:42:56.560Z,27.98
2018-06-18T13:45:30.727Z,27.98
2018-06-18T13:48:04.933Z,27.99
2018-06-18T13:50:34.047Z,27.97
2018-06-18T13:53:03.686Z,27.98
2018-06-18T13:55:32.824Z,27.98
2018-06-18T13:58:02.070Z,27.98
2018-06-18T14:00:31.103Z,27.99
2018-06-18T14:03:00.132Z,27.98
2018-06-18T14:05:28.958Z,27.99
2018-06-18T14:07:58.162Z,27.99
2018-06-18T14:10:27.258Z,27.98
2018-06-18T14:12:56.404Z,27.99
2018-06-18T14:15:25.294Z,27.98
2018-06-18T14:17:54.375Z,27.99
2018-06-18T14:20:24.760Z,27.98
2018-06-18T14:22:54.173Z,27.99
2018-06-18T14:25:23.330Z,27.98
2018-06-18T14:27:52.236Z,27.97
2018-06-18T14:30:26.303Z,27.97
2018-06-18T14:33:00.317Z,27.97
2018-06-18T14:35:34.747Z,27.97
2018-06-18T14:38:08.862Z,27.96
2018-06-18T14:40:37.781Z,27.96
2018-06-18T14:43:07.104Z,27.95
2018-06-18T14:45:36.119Z,27.94
2018-06-18T14:48:05.307Z,27.94
2018-06-18T14:50:34.822Z,27.94
2018-06-18T14:53:03.756Z,27.94
2018-06-18T14:55:32.706Z,27.94
2018-06-18T14:58:01.972Z,27.94
2018-06-18T15:00:32.647Z,27.94
2018-06-18T15:03:01.879Z,27.93
2018-06-18T15:05:36.726Z,27.92
2018-06-18T15:08:05.767Z,27.92
2018-06-18T15:10:40.028Z,27.91
2018-06-18T15:13:11.094Z,27.91
2018-06-18T15:15:45.191Z,27.90
2018-06-18T15:18:14.092Z,27.90
2018-06-18T15:20:43.195Z,27.90
2018-06-18T15:23:12.329Z,27.89
2018-06-18T15:25:47.060Z,27.87
2018-06-18T15:28:16.008Z,27.88
2018-06-18T15:30:45.027Z,27.87
2018-06-18T15:33:14.087Z,27.88
2018-06-18T15:35:43.293Z,27.87
2018-06-18T15:38:12.341Z,27.87
2018-06-18T15:40:41.267Z,27.86
2018-06-18T15:43:10.297Z,27.87
2018-06-18T15:45:39.313Z,27.87
2018-06-18T15:48:08.359Z,27.88
2018-06-18T15:50:37.419Z,27.88
2018-06-18T15:53:06.385Z,27.88
2018-06-18T15:55:35.307Z,27.87
2018-06-18T15:58:04.533Z,27.88
2018-06-18T16:00:33.783Z,27.87
2018-06-18T16:03:02.807Z,27.88
2018-06-18T16:05:31.933Z,27.88
2018-06-18T16:08:00.922Z,27.88
2018-06-18T16:10:29.942Z,27.88
2018-06-18T16:12:59.062Z,27.88
2018-06-18T16:15:28.028Z,27.89
2018-06-18T16:17:57.045Z,27.89
2018-06-18T16:20:26.084Z,27.89
2018-06-18T16:22:55.518Z,27.88
2018-06-18T16:25:24.474Z,27.89
2018-06-18T16:27:53.516Z,27.90
2018-06-18T16:30:22.554Z,27.89
2018-06-18T16:32:51.645Z,27.89
2018-06-18T16:35:20.789Z,27.89
2018-06-18T16:37:49.859Z,27.90
2018-06-18T16:40:18.680Z,27.89
2018-06-18T16:42:47.701Z,27.90
2018-06-18T16:45:16.689Z,27.90
2018-06-18T16:47:45.610Z,27.90
2018-06-18T16:50:14.891Z,27.89
2018-06-18T16:52:44.023Z,27.89
2018-06-18T16:55:13.199Z,27.88
2018-06-18T16:57:42.150Z,27.88
2018-06-18T17:00:11.301Z,27.89
2018-06-18T17:02:40.473Z,27.88
2018-06-18T17:05:09.327Z,27.88
2018-06-18T17:07:38.186Z,27.87
2018-06-18T17:10:07.288Z,27.87
2018-06-18T17:12:36.467Z,27.87
2018-06-18T17:15:05.613Z,27.86
2018-06-18T17:17:34.771Z,27.85
2018-06-18T17:20:03.916Z,27.85
2018-06-18T17:22:33.002Z,27.84
2018-06-18T17:25:02.004Z,27.83
2018-06-18T17:27:31.095Z,27.83
2018-06-18T17:30:00.014Z,27.82
2018-06-18T17:32:29.093Z,27.82
2018-06-18T17:34:58.186Z,27.82
2018-06-18T17:37:27.189Z,27.81
2018-06-18T17:39:56.297Z,27.81
2018-06-18T17:42:25.313Z,27.80
2018-06-18T17:44:54.474Z,27.80
2018-06-18T17:47:23.588Z,27.78
2018-06-18T17:49:52.658Z,27.78
2018-06-18T17:52:21.699Z,27.77
2018-06-18T17:54:50.954Z,27.77
2018-06-18T17:57:20.104Z,27.76
2018-06-18T17:59:49.201Z,27.77
2018-06-18T18:02:18.157Z,27.76
2018-06-18T18:04:47.079Z,27.77
2018-06-18T18:07:16.277Z,27.77
2018-06-18T18:09:45.263Z,27.75
2018-06-18T18:12:14.273Z,27.76
2018-06-18T18:14:43.415Z,27.76
2018-06-18T18:17:12.228Z,27.76
2018-06-18T18:19:41.242Z,27.76
2018-06-18T18:22:10.409Z,27.76
2018-06-18T18:24:39.390Z,27.76
2018-06-18T18:27:08.244Z,27.75
2018-06-18T18:29:37.314Z,27.75
2018-06-18T18:32:06.445Z,27.75
2018-06-18T18:34:35.366Z,27.75
2018-06-18T18:37:06.202Z,27.74
2018-06-18T18:39:35.369Z,27.74
2018-06-18T18:42:04.893Z,27.75
2018-06-18T18:44:34.049Z,27.74
2018-06-18T18:47:03.206Z,27.74
2018-06-18T18:49:32.410Z,27.74
2018-06-18T18:52:01.489Z,27.74
2018-06-18T18:55:50.219Z,27.73
2018-06-18T18:58:59.150Z,27.71
2018-06-18T19:01:28.754Z,27.68
2018-06-18T19:04:00.280Z,27.68
2018-06-18T19:06:29.569Z,27.67
2018-06-18T19:08:58.856Z,27.68
2018-06-18T19:11:28.043Z,27.67
2018-06-18T19:13:56.785Z,27.68
2018-06-18T19:16:25.813Z,27.68
2018-06-18T19:18:59.012Z,27.67
2018-06-18T19:21:28.282Z,27.67
2018-06-18T19:23:57.535Z,27.68
2018-06-18T19:26:26.753Z,27.67
2018-06-18T19:28:55.941Z,27.67
2018-06-18T19:31:25.908Z,27.67
2018-06-18T19:34:07.080Z,27.65
2018-06-18T19:36:36.341Z,27.65
2018-06-18T19:39:08.213Z,27.65
2018-06-18T19:41:37.443Z,27.64
2018-06-18T19:44:06.818Z,27.63
2018-06-18T19:46:52.114Z,27.63
2018-06-18T19:49:21.405Z,27.62
2018-06-18T19:51:50.447Z,27.62
2018-06-18T19:54:22.354Z,27.61
2018-06-18T19:56:51.309Z,27.61
2018-06-18T19:59:21.322Z,27.60
2018-06-18T20:01:50.489Z,27.60
2018-06-18T20:04:19.589Z,27.58
2018-06-18T20:06:48.788Z,27.59
2018-06-18T20:09:17.894Z,27.58
2018-06-18T20:11:47.028Z,27.60
2018-06-18T20:14:16.086Z,27.57
2018-06-18T20:16:45.153Z,27.57
2018-06-18T20:19:14.297Z,27.52
2018-06-18T20:21:43.340Z,27.56
2018-06-18T20:24:12.607Z,27.55
2018-06-18T20:26:41.920Z,27.55
2018-06-18T20:29:11.013Z,27.55
2018-06-18T20:31:40.105Z,27.55
2018-06-18T20:34:09.230Z,27.56
2018-06-18T20:36:38.334Z,27.55
2018-06-18T20:39:11.224Z,27.55
2018-06-18T20:41:40.128Z,27.55
2018-06-18T20:44:17.623Z,27.55
2018-06-18T20:46:46.475Z,27.54
2018-06-18T20:49:16.246Z,27.55
2018-06-18T20:51:45.811Z,27.55
2018-06-18T20:54:15.064Z,27.54
2018-06-18T20:56:44.289Z,27.54
2018-06-18T20:59:14.416Z,27.54
2018-06-18T21:01:43.588Z,27.54
2018-06-18T21:04:12.891Z,27.55
2018-06-18T21:06:42.215Z,27.55
2018-06-18T21:09:12.145Z,27.54
2018-06-18T21:11:41.320Z,27.54
2018-06-18T21:14:11.269Z,27.54
2018-06-18T21:16:42.633Z,27.53
2018-06-18T21:19:11.795Z,27.54
2018-06-18T21:21:40.774Z,27.53
2018-06-18T21:24:10.017Z,27.54
2018-06-18T21:26:39.071Z,27.54
2018-06-18T21:29:08.418Z,27.55
2018-06-18T21:31:37.576Z,27.57
2018-06-18T21:34:06.879Z,27.58
2018-06-18T21:36:35.735Z,27.59
2018-06-18T21:39:06.940Z,27.61
2018-06-18T21:41:35.897Z,27.60
2018-06-18T21:44:05.515Z,27.62
2018-06-18T21:46:34.573Z,27.64
2018-06-18T21:49:03.430Z,27.65
2018-06-18T21:51:32.382Z,27.67
2018-06-18T21:54:01.226Z,27.67
2018-06-18T21:56:30.042Z,27.68
2018-06-18T21:58:58.899Z,27.69
2018-06-18T22:01:36.924Z,27.70
2018-06-18T22:04:06.074Z,27.70
2018-06-18T22:06:34.949Z,27.71
2018-06-18T22:09:04.023Z,27.71
2018-06-18T22:11:32.795Z,27.71
2018-06-18T22:14:01.624Z,27.71
2018-06-18T22:16:30.530Z,27.72
2018-06-18T22:18:59.309Z,27.73
2018-06-18T22:21:28.209Z,27.73
2018-06-18T22:23:57.310Z,27.74
2018-06-18T22:26:26.499Z,27.74
2018-06-18T22:28:55.563Z,27.73
2018-06-18T22:31:24.701Z,27.73
2018-06-18T22:33:53.914Z,27.73
2018-06-18T22:36:22.846Z,27.72
2018-06-18T22:38:51.890Z,27.71
2018-06-18T22:41:20.766Z,27.70
2018-06-18T22:43:49.733Z,27.69
2018-06-18T22:46:18.920Z,27.69
2018-06-18T22:48:47.910Z,27.68
2018-06-18T22:51:16.899Z,27.67
2018-06-18T22:53:46.317Z,27.66
2018-06-18T22:56:15.607Z,27.64
2018-06-18T22:58:44.604Z,27.64
2018-06-18T23:01:13.879Z,27.63
2018-06-18T23:03:42.765Z,27.62
2018-06-18T23:06:12.098Z,27.61
2018-06-18T23:08:41.198Z,27.60
2018-06-18T23:11:10.353Z,27.54
2018-06-18T23:13:40.061Z,27.58
2018-06-18T23:16:09.720Z,27.59
2018-06-18T23:18:39.454Z,27.58
2018-06-18T23:21:08.582Z,27.58
2018-06-18T23:23:37.821Z,27.58
2018-06-18T23:26:06.829Z,27.58
2018-06-18T23:28:52.402Z,27.57
2018-06-18T23:31:21.402Z,27.56
2018-06-18T23:33:50.542Z,27.56
2018-06-18T23:36:20.085Z,27.55
2018-06-18T23:38:50.156Z,27.54
2018-06-18T23:41:19.828Z,27.54
2018-06-18T23:43:49.229Z,27.54
2018-06-18T23:46:18.491Z,27.53
2018-06-18T23:48:47.729Z,27.53
2018-06-18T23:51:16.865Z,27.53
2018-06-18T23:53:46.213Z,27.52
2018-06-18T23:56:15.368Z,27.52
2018-06-18T23:58:44.438Z,27.52
